sensor_id;sensor_type;location;lat;lon;timestamp;temperature;humidity
4910;DHT22;2470;49.868;8.660;2023-07-30T00:00:30;21.70;99.90
4910;DHT22;2470;49.868;8.660;2023-07-30T00:02:56;21.60;99.90
4910;DHT22;2470;49.868;8.660;2023-07-30T00:05:21;21.60;99.90
4910;DHT22;2470;49.868;8.660;2023-07-30T00:07:47;21.50;99.90
4910;DHT22;2470;49.868;8.660;2023-07-30T00:10:12;21.40;99.90
4910;DHT22;2470;49.868;8.660;2023-07-30T00:12:38;21.40;99.90
4910;DHT22;2470;49.868;8.660;2023-07-30T00:15:04;21.30;99.90
4910;DHT22;2470;49.868;8.660;2023-07-30T00:17:29;21.30;99.90
4910;DHT22;2470;49.868;8.660;2023-07-30T00:19:55;21.30;99.90
4910;DHT22;2470;49.868;8.660;2023-07-30T00:22:20;21.40;99.90
4910;DHT22;2470;49.868;8.660;2023-07-30T00:24:46;21.40;99.90
4910;DHT22;2470;49.868;8.660;2023-07-30T00:27:11;21.30;99.90
4910;DHT22;2470;49.868;8.660;2023-07-30T00:29:37;21.30;99.90
4910;DHT22;2470;49.868;8.660;2023-07-30T00:32:02;21.30;99.90
4910;DHT22;2470;49.868;8.660;2023-07-30T00:34:28;21.30;99.90
4910;DHT22;2470;49.868;8.660;2023-07-30T00:36:53;21.30;99.90
4910;DHT22;2470;49.868;8.660;2023-07-30T00:39:19;21.30;99.90
4910;DHT22;2470;49.868;8.660;2023-07-30T00:41:44;21.30;99.90
4910;DHT22;2470;49.868;8.660;2023-07-30T00:44:11;21.20;99.90
4910;DHT22;2470;49.868;8.660;2023-07-30T00:46:37;21.20;99.90
4910;DHT22;2470;49.868;8.660;2023-07-30T00:49:02;21.20;99.90
4910;DHT22;2470;49.868;8.660;2023-07-30T00:51:30;21.10;99.90
4910;DHT22;2470;49.868;8.660;2023-07-30T00:53:56;21.10;99.90
4910;DHT22;2470;49.868;8.660;2023-07-30T00:56:22;21.10;99.90
4910;DHT22;2470;49.868;8.660;2023-07-30T00:58:48;21.10;99.90
4910;DHT22;2470;49.868;8.660;2023-07-30T01:01:14;21.10;99.90
4910;DHT22;2470;49.868;8.660;2023-07-30T01:03:40;21.10;99.90
4910;DHT22;2470;49.868;8.660;2023-07-30T01:06:06;21.00;99.90
4910;DHT22;2470;49.868;8.660;2023-07-30T01:08:32;21.00;99.90
4910;DHT22;2470;49.868;8.660;2023-07-30T01:10:58;21.00;99.90
4910;DHT22;2470;49.868;8.660;2023-07-30T01:13:23;21.00;99.90
4910;DHT22;2470;49.868;8.660;2023-07-30T01:15:50;21.00;99.90
4910;DHT22;2470;49.868;8.660;2023-07-30T01:18:15;21.00;99.90
4910;DHT22;2470;49.868;8.660;2023-07-30T01:20:41;20.90;99.90
4910;DHT22;2470;49.868;8.660;2023-07-30T01:23:06;20.90;99.90
4910;DHT22;2470;49.868;8.660;2023-07-30T01:25:36;20.90;99.90
4910;DHT22;2470;49.868;8.660;2023-07-30T01:28:03;20.90;99.90
4910;DHT22;2470;49.868;8.660;2023-07-30T01:30:41;20.90;99.90
4910;DHT22;2470;49.868;8.660;2023-07-30T01:33:08;20.90;99.90
4910;DHT22;2470;49.868;8.660;2023-07-30T01:35:37;20.80;99.90
4910;DHT22;2470;49.868;8.660;2023-07-30T01:38:03;20.80;99.90
4910;DHT22;2470;49.868;8.660;2023-07-30T01:40:34;20.80;99.90
4910;DHT22;2470;49.868;8.660;2023-07-30T01:42:59;20.70;99.90
4910;DHT22;2470;49.868;8.660;2023-07-30T01:45:25;20.70;99.90
4910;DHT22;2470;49.868;8.660;2023-07-30T01:47:51;20.70;99.90
4910;DHT22;2470;49.868;8.660;2023-07-30T01:50:17;20.60;99.90
4910;DHT22;2470;49.868;8.660;2023-07-30T01:52:42;20.60;99.90
4910;DHT22;2470;49.868;8.660;2023-07-30T01:55:08;20.60;99.90
4910;DHT22;2470;49.868;8.660;2023-07-30T01:57:34;20.60;99.90
4910;DHT22;2470;49.868;8.660;2023-07-30T01:59:59;20.60;99.90
4910;DHT22;2470;49.868;8.660;2023-07-30T02:02:25;20.50;99.90
4910;DHT22;2470;49.868;8.660;2023-07-30T02:04:50;20.50;99.90
4910;DHT22;2470;49.868;8.660;2023-07-30T02:07:16;20.50;99.90
4910;DHT22;2470;49.868;8.660;2023-07-30T02:09:41;20.50;99.90
4910;DHT22;2470;49.868;8.660;2023-07-30T02:12:07;20.50;99.90
4910;DHT22;2470;49.868;8.660;2023-07-30T02:14:33;20.50;99.90
4910;DHT22;2470;49.868;8.660;2023-07-30T02:16:58;20.50;99.90
4910;DHT22;2470;49.868;8.660;2023-07-30T02:19:24;20.50;99.90
4910;DHT22;2470;49.868;8.660;2023-07-30T02:21:49;20.50;99.90
4910;DHT22;2470;49.868;8.660;2023-07-30T02:24:15;20.60;99.90
4910;DHT22;2470;49.868;8.660;2023-07-30T02:26:40;20.50;99.90
4910;DHT22;2470;49.868;8.660;2023-07-30T02:29:06;20.50;99.90
4910;DHT22;2470;49.868;8.660;2023-07-30T02:31:31;20.40;99.90
4910;DHT22;2470;49.868;8.660;2023-07-30T02:33:57;20.40;99.90
4910;DHT22;2470;49.868;8.660;2023-07-30T02:36:23;20.40;99.90
4910;DHT22;2470;49.868;8.660;2023-07-30T02:38:52;20.40;99.90
4910;DHT22;2470;49.868;8.660;2023-07-30T02:41:17;20.50;99.90
4910;DHT22;2470;49.868;8.660;2023-07-30T02:43:43;20.50;99.90
4910;DHT22;2470;49.868;8.660;2023-07-30T02:46:08;20.50;99.90
4910;DHT22;2470;49.868;8.660;2023-07-30T02:48:34;20.50;99.90
4910;DHT22;2470;49.868;8.660;2023-07-30T02:51:00;20.50;99.90
4910;DHT22;2470;49.868;8.660;2023-07-30T02:53:25;20.40;99.90
4910;DHT22;2470;49.868;8.660;2023-07-30T02:55:51;20.40;99.90
4910;DHT22;2470;49.868;8.660;2023-07-30T02:58:16;20.30;99.90
4910;DHT22;2470;49.868;8.660;2023-07-30T03:00:42;20.20;99.90
4910;DHT22;2470;49.868;8.660;2023-07-30T03:03:07;20.20;99.90
4910;DHT22;2470;49.868;8.660;2023-07-30T03:05:32;20.30;99.90
4910;DHT22;2470;49.868;8.660;2023-07-30T03:07:58;20.30;99.90
4910;DHT22;2470;49.868;8.660;2023-07-30T03:10:23;20.30;99.90
4910;DHT22;2470;49.868;8.660;2023-07-30T03:12:49;20.30;99.90
4910;DHT22;2470;49.868;8.660;2023-07-30T03:15:14;20.40;99.90
4910;DHT22;2470;49.868;8.660;2023-07-30T03:17:40;20.40;99.90
4910;DHT22;2470;49.868;8.660;2023-07-30T03:20:06;20.40;99.90
4910;DHT22;2470;49.868;8.660;2023-07-30T03:22:32;20.30;99.90
4910;DHT22;2470;49.868;8.660;2023-07-30T03:24:57;20.30;99.90
4910;DHT22;2470;49.868;8.660;2023-07-30T03:27:23;20.30;99.90
4910;DHT22;2470;49.868;8.660;2023-07-30T03:29:49;20.30;99.90
4910;DHT22;2470;49.868;8.660;2023-07-30T03:32:14;20.30;99.90
4910;DHT22;2470;49.868;8.660;2023-07-30T03:34:40;20.30;99.90
4910;DHT22;2470;49.868;8.660;2023-07-30T03:37:05;20.30;99.90
4910;DHT22;2470;49.868;8.660;2023-07-30T03:39:31;20.30;99.90
4910;DHT22;2470;49.868;8.660;2023-07-30T03:41:56;20.30;99.90
4910;DHT22;2470;49.868;8.660;2023-07-30T03:44:22;20.30;99.90
4910;DHT22;2470;49.868;8.660;2023-07-30T03:46:48;20.30;99.90
4910;DHT22;2470;49.868;8.660;2023-07-30T03:49:13;20.30;99.90
4910;DHT22;2470;49.868;8.660;2023-07-30T03:51:39;20.30;99.90
4910;DHT22;2470;49.868;8.660;2023-07-30T03:54:05;20.30;99.90
4910;DHT22;2470;49.868;8.660;2023-07-30T03:56:30;20.30;99.90
4910;DHT22;2470;49.868;8.660;2023-07-30T03:58:56;20.20;99.90
4910;DHT22;2470;49.868;8.660;2023-07-30T04:01:21;20.20;99.90
4910;DHT22;2470;49.868;8.660;2023-07-30T04:03:47;20.20;99.90
4910;DHT22;2470;49.868;8.660;2023-07-30T04:06:12;20.20;99.90
4910;DHT22;2470;49.868;8.660;2023-07-30T04:08:38;20.20;99.90
4910;DHT22;2470;49.868;8.660;2023-07-30T04:11:03;20.20;99.90
4910;DHT22;2470;49.868;8.660;2023-07-30T04:13:29;20.20;99.90
4910;DHT22;2470;49.868;8.660;2023-07-30T04:15:54;20.30;99.90
4910;DHT22;2470;49.868;8.660;2023-07-30T04:18:20;20.30;99.90
4910;DHT22;2470;49.868;8.660;2023-07-30T04:20:45;20.30;99.90
4910;DHT22;2470;49.868;8.660;2023-07-30T04:23:11;20.20;99.90
4910;DHT22;2470;49.868;8.660;2023-07-30T04:25:36;20.20;99.90
4910;DHT22;2470;49.868;8.660;2023-07-30T04:28:02;20.20;99.90
4910;DHT22;2470;49.868;8.660;2023-07-30T04:30:27;20.10;99.90
4910;DHT22;2470;49.868;8.660;2023-07-30T04:32:53;20.10;99.90
4910;DHT22;2470;49.868;8.660;2023-07-30T04:35:18;20.20;99.90
4910;DHT22;2470;49.868;8.660;2023-07-30T04:37:44;20.10;99.90
4910;DHT22;2470;49.868;8.660;2023-07-30T04:40:10;20.20;99.90
4910;DHT22;2470;49.868;8.660;2023-07-30T04:42:36;20.20;99.90
4910;DHT22;2470;49.868;8.660;2023-07-30T04:45:01;20.20;99.90
4910;DHT22;2470;49.868;8.660;2023-07-30T04:47:27;20.10;99.90
4910;DHT22;2470;49.868;8.660;2023-07-30T04:49:52;20.10;99.90
4910;DHT22;2470;49.868;8.660;2023-07-30T04:52:19;20.10;99.90
4910;DHT22;2470;49.868;8.660;2023-07-30T04:54:45;20.20;99.90
4910;DHT22;2470;49.868;8.660;2023-07-30T04:57:11;20.20;99.90
4910;DHT22;2470;49.868;8.660;2023-07-30T04:59:36;20.30;99.90
4910;DHT22;2470;49.868;8.660;2023-07-30T05:02:02;20.30;99.90
4910;DHT22;2470;49.868;8.660;2023-07-30T05:04:27;20.30;99.90
4910;DHT22;2470;49.868;8.660;2023-07-30T05:06:53;20.20;99.90
4910;DHT22;2470;49.868;8.660;2023-07-30T05:09:18;20.20;99.90
4910;DHT22;2470;49.868;8.660;2023-07-30T05:11:44;20.10;99.90
4910;DHT22;2470;49.868;8.660;2023-07-30T05:14:09;20.10;99.90
4910;DHT22;2470;49.868;8.660;2023-07-30T05:16:35;20.20;99.90
4910;DHT22;2470;49.868;8.660;2023-07-30T05:19:01;20.20;99.90
4910;DHT22;2470;49.868;8.660;2023-07-30T05:21:27;20.20;99.90
4910;DHT22;2470;49.868;8.660;2023-07-30T05:23:52;20.20;99.90
4910;DHT22;2470;49.868;8.660;2023-07-30T05:26:18;20.20;99.90
4910;DHT22;2470;49.868;8.660;2023-07-30T05:28:44;20.20;99.90
4910;DHT22;2470;49.868;8.660;2023-07-30T05:31:09;20.30;99.90
4910;DHT22;2470;49.868;8.660;2023-07-30T05:33:35;20.30;99.90
4910;DHT22;2470;49.868;8.660;2023-07-30T05:36:00;20.20;99.90
4910;DHT22;2470;49.868;8.660;2023-07-30T05:38:26;20.20;99.90
4910;DHT22;2470;49.868;8.660;2023-07-30T05:40:51;20.30;99.90
4910;DHT22;2470;49.868;8.660;2023-07-30T05:43:17;20.30;99.90
4910;DHT22;2470;49.868;8.660;2023-07-30T05:45:43;20.20;99.90
4910;DHT22;2470;49.868;8.660;2023-07-30T05:48:08;20.20;99.90
4910;DHT22;2470;49.868;8.660;2023-07-30T05:50:34;20.30;99.90
4910;DHT22;2470;49.868;8.660;2023-07-30T05:53:00;20.40;99.90
4910;DHT22;2470;49.868;8.660;2023-07-30T05:55:25;20.60;99.90
4910;DHT22;2470;49.868;8.660;2023-07-30T05:57:51;20.70;99.90
4910;DHT22;2470;49.868;8.660;2023-07-30T06:00:18;20.80;99.90
4910;DHT22;2470;49.868;8.660;2023-07-30T06:02:44;20.90;99.90
4910;DHT22;2470;49.868;8.660;2023-07-30T06:05:09;21.10;99.90
4910;DHT22;2470;49.868;8.660;2023-07-30T06:07:35;21.10;99.90
4910;DHT22;2470;49.868;8.660;2023-07-30T06:10:01;21.20;99.90
4910;DHT22;2470;49.868;8.660;2023-07-30T06:12:26;21.20;99.90
4910;DHT22;2470;49.868;8.660;2023-07-30T06:14:52;21.20;99.90
4910;DHT22;2470;49.868;8.660;2023-07-30T06:17:17;21.30;99.90
4910;DHT22;2470;49.868;8.660;2023-07-30T06:19:43;21.30;99.90
4910;DHT22;2470;49.868;8.660;2023-07-30T06:22:08;21.30;99.90
4910;DHT22;2470;49.868;8.660;2023-07-30T06:24:34;21.40;99.90
4910;DHT22;2470;49.868;8.660;2023-07-30T06:26:59;21.60;99.90
4910;DHT22;2470;49.868;8.660;2023-07-30T06:29:25;21.60;99.90
4910;DHT22;2470;49.868;8.660;2023-07-30T06:31:50;21.60;99.90
4910;DHT22;2470;49.868;8.660;2023-07-30T06:34:16;21.70;99.90
4910;DHT22;2470;49.868;8.660;2023-07-30T06:36:41;21.60;99.90
4910;DHT22;2470;49.868;8.660;2023-07-30T06:39:07;21.70;99.90
4910;DHT22;2470;49.868;8.660;2023-07-30T06:41:32;21.70;99.90
4910;DHT22;2470;49.868;8.660;2023-07-30T06:43:58;21.70;99.90
4910;DHT22;2470;49.868;8.660;2023-07-30T06:46:23;21.70;99.90
4910;DHT22;2470;49.868;8.660;2023-07-30T06:48:49;21.70;99.90
4910;DHT22;2470;49.868;8.660;2023-07-30T06:51:14;21.70;99.90
4910;DHT22;2470;49.868;8.660;2023-07-30T06:53:43;21.70;99.90
4910;DHT22;2470;49.868;8.660;2023-07-30T06:56:09;21.70;99.90
4910;DHT22;2470;49.868;8.660;2023-07-30T06:58:34;21.70;99.90
4910;DHT22;2470;49.868;8.660;2023-07-30T07:01:00;21.80;99.90
4910;DHT22;2470;49.868;8.660;2023-07-30T07:03:25;21.80;99.90
4910;DHT22;2470;49.868;8.660;2023-07-30T07:05:55;21.80;99.90
4910;DHT22;2470;49.868;8.660;2023-07-30T07:08:20;21.80;99.90
4910;DHT22;2470;49.868;8.660;2023-07-30T07:10:46;21.80;99.90
4910;DHT22;2470;49.868;8.660;2023-07-30T07:13:11;21.80;99.90
4910;DHT22;2470;49.868;8.660;2023-07-30T07:15:43;21.80;99.90
4910;DHT22;2470;49.868;8.660;2023-07-30T07:18:09;21.80;99.90
4910;DHT22;2470;49.868;8.660;2023-07-30T07:20:35;22.00;99.90
4910;DHT22;2470;49.868;8.660;2023-07-30T07:23:01;22.10;99.90
4910;DHT22;2470;49.868;8.660;2023-07-30T07:25:26;22.20;99.90
4910;DHT22;2470;49.868;8.660;2023-07-30T07:27:52;22.20;99.90
4910;DHT22;2470;49.868;8.660;2023-07-30T07:30:18;22.10;99.90
4910;DHT22;2470;49.868;8.660;2023-07-30T07:32:43;21.90;99.90
4910;DHT22;2470;49.868;8.660;2023-07-30T07:35:09;21.90;99.90
4910;DHT22;2470;49.868;8.660;2023-07-30T07:37:34;21.70;99.90
4910;DHT22;2470;49.868;8.660;2023-07-30T07:40:00;21.60;99.90
4910;DHT22;2470;49.868;8.660;2023-07-30T07:42:25;21.40;99.90
4910;DHT22;2470;49.868;8.660;2023-07-30T07:44:51;21.30;99.90
4910;DHT22;2470;49.868;8.660;2023-07-30T07:47:16;21.20;99.90
4910;DHT22;2470;49.868;8.660;2023-07-30T07:49:42;20.90;99.90
4910;DHT22;2470;49.868;8.660;2023-07-30T07:52:07;20.80;99.90
4910;DHT22;2470;49.868;8.660;2023-07-30T07:54:34;20.50;99.90
4910;DHT22;2470;49.868;8.660;2023-07-30T07:56:59;20.30;99.90
4910;DHT22;2470;49.868;8.660;2023-07-30T07:59:25;20.30;99.90
4910;DHT22;2470;49.868;8.660;2023-07-30T08:01:51;20.30;99.90
4910;DHT22;2470;49.868;8.660;2023-07-30T08:04:17;20.30;99.90
4910;DHT22;2470;49.868;8.660;2023-07-30T08:06:43;20.40;99.90
4910;DHT22;2470;49.868;8.660;2023-07-30T08:09:08;20.40;99.90
4910;DHT22;2470;49.868;8.660;2023-07-30T08:11:34;20.50;99.90
4910;DHT22;2470;49.868;8.660;2023-07-30T08:13:59;20.50;99.90
4910;DHT22;2470;49.868;8.660;2023-07-30T08:16:25;20.60;99.90
4910;DHT22;2470;49.868;8.660;2023-07-30T08:18:50;20.60;99.90
4910;DHT22;2470;49.868;8.660;2023-07-30T08:21:16;20.70;99.90
4910;DHT22;2470;49.868;8.660;2023-07-30T08:23:43;20.90;99.90
4910;DHT22;2470;49.868;8.660;2023-07-30T08:26:08;21.00;99.90
4910;DHT22;2470;49.868;8.660;2023-07-30T08:28:34;21.00;99.90
4910;DHT22;2470;49.868;8.660;2023-07-30T08:31:00;21.10;99.90
4910;DHT22;2470;49.868;8.660;2023-07-30T08:33:27;21.20;99.90
4910;DHT22;2470;49.868;8.660;2023-07-30T08:35:56;21.40;99.90
4910;DHT22;2470;49.868;8.660;2023-07-30T08:38:22;21.60;99.90
4910;DHT22;2470;49.868;8.660;2023-07-30T08:40:47;21.70;99.90
4910;DHT22;2470;49.868;8.660;2023-07-30T08:43:13;21.70;99.90
4910;DHT22;2470;49.868;8.660;2023-07-30T08:45:39;21.80;99.90
4910;DHT22;2470;49.868;8.660;2023-07-30T08:48:04;21.90;99.90
4910;DHT22;2470;49.868;8.660;2023-07-30T08:50:30;22.00;99.90
4910;DHT22;2470;49.868;8.660;2023-07-30T08:52:57;22.00;99.90
4910;DHT22;2470;49.868;8.660;2023-07-30T08:55:25;21.90;99.90
4910;DHT22;2470;49.868;8.660;2023-07-30T08:57:52;22.00;99.90
4910;DHT22;2470;49.868;8.660;2023-07-30T09:00:19;22.10;99.90
4910;DHT22;2470;49.868;8.660;2023-07-30T09:02:48;22.10;99.90
4910;DHT22;2470;49.868;8.660;2023-07-30T09:05:15;22.20;99.90
4910;DHT22;2470;49.868;8.660;2023-07-30T09:07:41;22.20;99.90
4910;DHT22;2470;49.868;8.660;2023-07-30T09:10:07;22.30;99.90
4910;DHT22;2470;49.868;8.660;2023-07-30T09:12:34;22.30;99.90
4910;DHT22;2470;49.868;8.660;2023-07-30T09:15:00;22.40;99.90
4910;DHT22;2470;49.868;8.660;2023-07-30T09:17:26;22.40;99.90
4910;DHT22;2470;49.868;8.660;2023-07-30T09:19:53;22.40;99.90
4910;DHT22;2470;49.868;8.660;2023-07-30T09:22:28;22.40;99.90
4910;DHT22;2470;49.868;8.660;2023-07-30T09:24:54;22.30;99.90
4910;DHT22;2470;49.868;8.660;2023-07-30T09:27:21;22.30;99.90
4910;DHT22;2470;49.868;8.660;2023-07-30T09:29:56;22.30;99.90
4910;DHT22;2470;49.868;8.660;2023-07-30T09:32:27;22.20;99.90
4910;DHT22;2470;49.868;8.660;2023-07-30T09:34:53;22.20;99.90
4910;DHT22;2470;49.868;8.660;2023-07-30T09:37:19;22.10;99.90
4910;DHT22;2470;49.868;8.660;2023-07-30T09:39:47;22.10;99.90
4910;DHT22;2470;49.868;8.660;2023-07-30T09:42:13;22.00;99.90
4910;DHT22;2470;49.868;8.660;2023-07-30T09:44:39;21.90;99.90
4910;DHT22;2470;49.868;8.660;2023-07-30T09:47:09;21.90;99.90
4910;DHT22;2470;49.868;8.660;2023-07-30T09:49:36;21.90;99.90
4910;DHT22;2470;49.868;8.660;2023-07-30T09:52:03;22.00;99.90
4910;DHT22;2470;49.868;8.660;2023-07-30T09:54:29;21.70;99.90
4910;DHT22;2470;49.868;8.660;2023-07-30T09:56:56;21.60;99.90
4910;DHT22;2470;49.868;8.660;2023-07-30T09:59:21;21.50;99.90
4910;DHT22;2470;49.868;8.660;2023-07-30T10:01:48;21.40;99.90
4910;DHT22;2470;49.868;8.660;2023-07-30T10:04:15;21.50;99.90
4910;DHT22;2470;49.868;8.660;2023-07-30T10:06:53;21.40;99.90
4910;DHT22;2470;49.868;8.660;2023-07-30T10:09:21;21.40;99.90
4910;DHT22;2470;49.868;8.660;2023-07-30T10:11:49;21.40;99.90
4910;DHT22;2470;49.868;8.660;2023-07-30T10:14:17;21.50;99.90
4910;DHT22;2470;49.868;8.660;2023-07-30T10:16:53;21.50;99.90
4910;DHT22;2470;49.868;8.660;2023-07-30T10:19:23;21.60;99.90
4910;DHT22;2470;49.868;8.660;2023-07-30T10:21:55;21.60;99.90
4910;DHT22;2470;49.868;8.660;2023-07-30T10:24:34;21.60;99.90
4910;DHT22;2470;49.868;8.660;2023-07-30T10:27:05;21.70;99.90
4910;DHT22;2470;49.868;8.660;2023-07-30T10:29:31;21.80;99.90
4910;DHT22;2470;49.868;8.660;2023-07-30T10:31:59;22.00;99.90
4910;DHT22;2470;49.868;8.660;2023-07-30T10:34:27;22.20;99.90
4910;DHT22;2470;49.868;8.660;2023-07-30T10:37:08;22.30;99.90
4910;DHT22;2470;49.868;8.660;2023-07-30T10:39:33;22.40;99.90
4910;DHT22;2470;49.868;8.660;2023-07-30T10:42:00;22.40;99.90
4910;DHT22;2470;49.868;8.660;2023-07-30T10:44:33;22.40;99.90
4910;DHT22;2470;49.868;8.660;2023-07-30T10:47:00;22.40;99.90
4910;DHT22;2470;49.868;8.660;2023-07-30T10:49:26;22.40;99.90
4910;DHT22;2470;49.868;8.660;2023-07-30T10:51:53;22.30;99.90
4910;DHT22;2470;49.868;8.660;2023-07-30T10:54:19;22.20;99.90
4910;DHT22;2470;49.868;8.660;2023-07-30T10:56:45;22.20;99.90
4910;DHT22;2470;49.868;8.660;2023-07-30T10:59:12;22.10;99.90
4910;DHT22;2470;49.868;8.660;2023-07-30T11:01:39;22.10;99.90
4910;DHT22;2470;49.868;8.660;2023-07-30T11:04:13;22.10;99.90
4910;DHT22;2470;49.868;8.660;2023-07-30T11:06:44;22.10;99.90
4910;DHT22;2470;49.868;8.660;2023-07-30T11:09:21;22.30;99.90
4910;DHT22;2470;49.868;8.660;2023-07-30T11:11:47;22.60;99.90
4910;DHT22;2470;49.868;8.660;2023-07-30T11:14:20;22.80;99.90
4910;DHT22;2470;49.868;8.660;2023-07-30T11:16:54;22.90;99.60
4910;DHT22;2470;49.868;8.660;2023-07-30T11:19:20;22.90;99.50
4910;DHT22;2470;49.868;8.660;2023-07-30T11:21:50;22.90;98.90
4910;DHT22;2470;49.868;8.660;2023-07-30T11:24:15;22.80;98.50
4910;DHT22;2470;49.868;8.660;2023-07-30T11:26:42;22.90;98.40
4910;DHT22;2470;49.868;8.660;2023-07-30T11:29:18;23.10;97.60
4910;DHT22;2470;49.868;8.660;2023-07-30T11:31:44;23.10;96.70
4910;DHT22;2470;49.868;8.660;2023-07-30T11:34:10;23.10;95.90
4910;DHT22;2470;49.868;8.660;2023-07-30T11:36:37;23.10;95.60
4910;DHT22;2470;49.868;8.660;2023-07-30T11:39:03;23.20;96.00
4910;DHT22;2470;49.868;8.660;2023-07-30T11:41:29;23.10;95.70
4910;DHT22;2470;49.868;8.660;2023-07-30T11:43:55;23.00;94.90
4910;DHT22;2470;49.868;8.660;2023-07-30T11:46:21;22.90;94.50
4910;DHT22;2470;49.868;8.660;2023-07-30T11:48:49;22.70;94.20
4910;DHT22;2470;49.868;8.660;2023-07-30T11:51:25;22.60;94.80
4910;DHT22;2470;49.868;8.660;2023-07-30T11:53:58;22.50;95.60
4910;DHT22;2470;49.868;8.660;2023-07-30T11:56:28;22.40;94.10
4910;DHT22;2470;49.868;8.660;2023-07-30T11:58:58;22.20;95.10
4910;DHT22;2470;49.868;8.660;2023-07-30T12:01:27;22.30;95.20
4910;DHT22;2470;49.868;8.660;2023-07-30T12:03:55;22.20;93.90
4910;DHT22;2470;49.868;8.660;2023-07-30T12:06:21;22.00;94.70
4910;DHT22;2470;49.868;8.660;2023-07-30T12:08:49;22.00;94.50
4910;DHT22;2470;49.868;8.660;2023-07-30T12:11:17;22.10;95.00
4910;DHT22;2470;49.868;8.660;2023-07-30T12:13:46;22.20;93.90
4910;DHT22;2470;49.868;8.660;2023-07-30T12:16:13;22.40;92.50
4910;DHT22;2470;49.868;8.660;2023-07-30T12:18:39;22.60;92.30
4910;DHT22;2470;49.868;8.660;2023-07-30T12:21:05;23.00;91.10
4910;DHT22;2470;49.868;8.660;2023-07-30T12:23:33;23.00;89.80
4910;DHT22;2470;49.868;8.660;2023-07-30T12:25:59;23.20;90.90
4910;DHT22;2470;49.868;8.660;2023-07-30T12:28:24;23.50;84.80
4910;DHT22;2470;49.868;8.660;2023-07-30T12:30:50;23.90;83.40
4910;DHT22;2470;49.868;8.660;2023-07-30T12:33:16;23.80;80.40
4910;DHT22;2470;49.868;8.660;2023-07-30T12:35:42;23.40;83.20
4910;DHT22;2470;49.868;8.660;2023-07-30T12:38:07;23.10;83.20
4910;DHT22;2470;49.868;8.660;2023-07-30T12:40:33;22.90;83.90
4910;DHT22;2470;49.868;8.660;2023-07-30T12:43:01;22.90;85.20
4910;DHT22;2470;49.868;8.660;2023-07-30T12:45:27;23.00;84.60
4910;DHT22;2470;49.868;8.660;2023-07-30T12:47:52;23.30;84.90
4910;DHT22;2470;49.868;8.660;2023-07-30T12:50:18;23.70;85.40
4910;DHT22;2470;49.868;8.660;2023-07-30T12:52:43;24.20;83.50
4910;DHT22;2470;49.868;8.660;2023-07-30T12:55:09;24.30;81.80
4910;DHT22;2470;49.868;8.660;2023-07-30T12:57:35;24.20;80.60
4910;DHT22;2470;49.868;8.660;2023-07-30T13:00:01;24.00;80.10
4910;DHT22;2470;49.868;8.660;2023-07-30T13:02:27;23.80;80.10
4910;DHT22;2470;49.868;8.660;2023-07-30T13:04:52;23.70;79.60
4910;DHT22;2470;49.868;8.660;2023-07-30T13:07:18;24.20;78.70
4910;DHT22;2470;49.868;8.660;2023-07-30T13:09:45;25.90;75.70
4910;DHT22;2470;49.868;8.660;2023-07-30T13:12:12;28.20;70.70
4910;DHT22;2470;49.868;8.660;2023-07-30T13:14:37;30.70;63.50
4910;DHT22;2470;49.868;8.660;2023-07-30T13:17:03;31.50;57.70
4910;DHT22;2470;49.868;8.660;2023-07-30T13:19:28;30.80;56.30
4910;DHT22;2470;49.868;8.660;2023-07-30T13:21:55;29.10;57.80
4910;DHT22;2470;49.868;8.660;2023-07-30T13:24:21;27.50;59.60
4910;DHT22;2470;49.868;8.660;2023-07-30T13:26:46;26.50;61.10
4910;DHT22;2470;49.868;8.660;2023-07-30T13:29:12;25.60;62.70
4910;DHT22;2470;49.868;8.660;2023-07-30T13:31:37;25.20;64.30
4910;DHT22;2470;49.868;8.660;2023-07-30T13:34:03;25.30;64.70
4910;DHT22;2470;49.868;8.660;2023-07-30T13:36:28;25.10;64.30
4910;DHT22;2470;49.868;8.660;2023-07-30T13:38:54;25.40;63.60
4910;DHT22;2470;49.868;8.660;2023-07-30T13:41:20;28.10;61.90
4910;DHT22;2470;49.868;8.660;2023-07-30T13:43:45;29.60;56.70
4910;DHT22;2470;49.868;8.660;2023-07-30T13:46:11;29.30;56.70
4910;DHT22;2470;49.868;8.660;2023-07-30T13:48:36;28.80;56.40
4910;DHT22;2470;49.868;8.660;2023-07-30T13:51:02;28.10;57.40
4910;DHT22;2470;49.868;8.660;2023-07-30T13:53:28;27.10;57.20
4910;DHT22;2470;49.868;8.660;2023-07-30T13:55:54;25.70;59.40
4910;DHT22;2470;49.868;8.660;2023-07-30T13:58:19;25.00;61.80
4910;DHT22;2470;49.868;8.660;2023-07-30T14:00:45;24.30;62.50
4910;DHT22;2470;49.868;8.660;2023-07-30T14:03:10;23.90;63.80
4910;DHT22;2470;49.868;8.660;2023-07-30T14:05:37;23.60;64.90
4910;DHT22;2470;49.868;8.660;2023-07-30T14:08:02;23.50;65.90
4910;DHT22;2470;49.868;8.660;2023-07-30T14:10:28;23.40;67.00
4910;DHT22;2470;49.868;8.660;2023-07-30T14:12:53;23.40;66.50
4910;DHT22;2470;49.868;8.660;2023-07-30T14:15:19;23.40;66.90
4910;DHT22;2470;49.868;8.660;2023-07-30T14:17:45;23.40;67.60
4910;DHT22;2470;49.868;8.660;2023-07-30T14:20:10;23.60;67.90
4910;DHT22;2470;49.868;8.660;2023-07-30T14:22:36;23.80;66.40
4910;DHT22;2470;49.868;8.660;2023-07-30T14:25:02;24.00;67.40
4910;DHT22;2470;49.868;8.660;2023-07-30T14:27:28;24.70;66.60
4910;DHT22;2470;49.868;8.660;2023-07-30T14:29:54;25.90;63.00
4910;DHT22;2470;49.868;8.660;2023-07-30T14:32:20;26.30;62.00
4910;DHT22;2470;49.868;8.660;2023-07-30T14:34:46;27.80;59.80
4910;DHT22;2470;49.868;8.660;2023-07-30T14:37:11;27.70;58.50
4910;DHT22;2470;49.868;8.660;2023-07-30T14:39:37;27.60;59.50
4910;DHT22;2470;49.868;8.660;2023-07-30T14:42:02;29.30;57.80
4910;DHT22;2470;49.868;8.660;2023-07-30T14:44:28;30.10;55.60
4910;DHT22;2470;49.868;8.660;2023-07-30T14:46:53;32.50;54.30
4910;DHT22;2470;49.868;8.660;2023-07-30T14:49:19;34.90;51.00
4910;DHT22;2470;49.868;8.660;2023-07-30T14:51:45;34.70;46.10
4910;DHT22;2470;49.868;8.660;2023-07-30T14:54:12;33.10;47.00
4910;DHT22;2470;49.868;8.660;2023-07-30T14:56:38;32.00;47.30
4910;DHT22;2470;49.868;8.660;2023-07-30T14:59:03;30.40;49.90
4910;DHT22;2470;49.868;8.660;2023-07-30T15:01:29;28.80;52.30
4910;DHT22;2470;49.868;8.660;2023-07-30T15:03:55;27.60;54.10
4910;DHT22;2470;49.868;8.660;2023-07-30T15:06:21;26.60;55.60
4910;DHT22;2470;49.868;8.660;2023-07-30T15:08:47;27.00;57.00
4910;DHT22;2470;49.868;8.660;2023-07-30T15:11:12;29.90;55.20
4910;DHT22;2470;49.868;8.660;2023-07-30T15:13:39;33.00;51.00
4910;DHT22;2470;49.868;8.660;2023-07-30T15:16:05;35.60;46.90
4910;DHT22;2470;49.868;8.660;2023-07-30T15:18:31;36.40;44.30
4910;DHT22;2470;49.868;8.660;2023-07-30T15:20:56;35.30;43.20
4910;DHT22;2470;49.868;8.660;2023-07-30T15:23:22;33.40;44.00
4910;DHT22;2470;49.868;8.660;2023-07-30T15:25:47;31.60;46.90
4910;DHT22;2470;49.868;8.660;2023-07-30T15:28:14;29.90;49.40
4910;DHT22;2470;49.868;8.660;2023-07-30T15:30:40;28.70;51.40
4910;DHT22;2470;49.868;8.660;2023-07-30T15:33:08;27.50;51.90
4910;DHT22;2470;49.868;8.660;2023-07-30T15:35:33;26.50;53.90
4910;DHT22;2470;49.868;8.660;2023-07-30T15:37:59;25.90;55.20
4910;DHT22;2470;49.868;8.660;2023-07-30T15:40:24;25.70;56.50
4910;DHT22;2470;49.868;8.660;2023-07-30T15:42:50;25.90;57.60
4910;DHT22;2470;49.868;8.660;2023-07-30T15:45:15;26.20;57.20
4910;DHT22;2470;49.868;8.660;2023-07-30T15:47:43;26.20;56.40
4910;DHT22;2470;49.868;8.660;2023-07-30T15:50:08;26.00;57.00
4910;DHT22;2470;49.868;8.660;2023-07-30T15:52:34;25.90;56.70
4910;DHT22;2470;49.868;8.660;2023-07-30T15:54:59;26.00;56.70